Time;durP1;ratioP1;P1;durP2;ratioP2;P2;SDS_P1;SDS_P2;PMS_P1;PMS_P2;Temp;Humidity;BMP_temperature;BMP_pressure;BME280_temperature;BME280_humidity;BME280_pressure;Samples;Min_cycle;Max_cycle;Signal;HPM_P1;HPM_P2
2022/10/02 00:01:40;;;;;;;3.80;1.60;;;;;;;9.90;100.00;98854.33;100549;1329;22715;-33
2022/10/02 00:04:05;;;;;;;1.40;1.10;;;;;;;9.93;100.00;98850.91;100673;1341;24297;-37
2022/10/02 00:06:39;;;;;;;2.60;1.40;;;;;;;10.12;100.00;98847.69;100556;1345;23102;-33
2022/10/02 00:09:06;;;;;;;3.10;1.10;;;;;;;10.18;100.00;98844.72;100618;1347;25356;-34
2022/10/02 00:11:42;;;;;;;0.40;0.30;;;;;;;10.17;100.00;98842.05;100574;1344;23090;-37
2022/10/02 00:14:10;;;;;;;1.10;0.80;;;;;;;10.19;100.00;98844.55;100603;1347;22521;-37
2022/10/02 00:16:38;;;;;;;3.20;1.40;;;;;;;10.12;100.00;98843.98;100600;1346;23342;-33
2022/10/02 00:19:04;;;;;;;3.40;1.30;;;;;;;10.15;100.00;98846.75;100614;1342;22854;-33
2022/10/02 00:21:49;;;;;;;4.80;1.50;;;;;;;9.99;100.00;98855.04;100643;1345;24417;-33
2022/10/02 00:24:18;;;;;;;2.70;1.20;;;;;;;9.94;100.00;98862.39;100605;1334;22519;-36
2022/10/02 00:26:48;;;;;;;1.50;1.00;;;;;;;9.91;100.00;98873.78;100602;1337;22849;-34
2022/10/02 00:29:37;;;;;;;3.20;1.90;;;;;;;9.89;100.00;98877.81;100591;1345;22523;-37
2022/10/02 00:32:11;;;;;;;2.20;1.10;;;;;;;9.93;100.00;98879.80;100644;1344;23116;-33
2022/10/02 00:34:44;;;;;;;1.10;0.80;;;;;;;9.96;100.00;98877.13;100581;1333;22932;-37
2022/10/02 00:37:19;;;;;;;2.00;0.90;;;;;;;10.14;100.00;98863.34;100656;1324;24453;-34
2022/10/02 00:39:53;;;;;;;1.00;0.80;;;;;;;10.31;100.00;98844.77;100615;1341;23163;-34
2022/10/02 00:42:22;;;;;;;1.80;1.40;;;;;;;10.37;100.00;98848.91;100570;1344;22659;-36
2022/10/02 00:44:55;;;;;;;1.00;1.00;;;;;;;10.51;100.00;98849.33;100606;1344;24334;-33
2022/10/02 00:47:33;;;;;;;2.40;1.10;;;;;;;10.66;100.00;98840.87;100682;1347;24302;-36
2022/10/02 00:50:14;;;;;;;2.30;0.60;;;;;;;10.66;100.00;98844.17;100590;1345;24576;-36
2022/10/02 00:52:47;;;;;;;5.80;1.00;;;;;;;10.59;100.00;98845.48;100614;1342;22874;-35
2022/10/02 00:55:19;;;;;;;0.70;0.50;;;;;;;10.57;100.00;98846.88;100544;1334;22762;-33
2022/10/02 00:57:54;;;;;;;2.30;1.20;;;;;;;10.67;100.00;98850.70;100609;1339;22747;-36
2022/10/02 01:00:21;;;;;;;2.30;1.10;;;;;;;10.68;100.00;98844.97;100659;1345;22502;-33
2022/10/02 01:02:54;;;;;;;2.90;0.80;;;;;;;10.66;100.00;98852.94;100651;1334;22748;-37
2022/10/02 01:05:20;;;;;;;0.90;0.70;;;;;;;10.71;100.00;98850.52;100599;1348;22502;-34
2022/10/02 01:07:48;;;;;;;1.70;0.80;;;;;;;10.72;100.00;98862.92;100576;1325;24302;-36
2022/10/02 01:10:14;;;;;;;0.90;0.40;;;;;;;10.68;100.00;98859.83;100650;1339;23142;-36
2022/10/02 01:12:40;;;;;;;0.40;0.40;;;;;;;10.76;100.00;98860.39;100618;1329;24360;-33
2022/10/02 01:15:10;;;;;;;0.90;0.80;;;;;;;10.75;100.00;98856.88;100608;1339;24295;-35
2022/10/02 01:17:36;;;;;;;0.50;0.50;;;;;;;10.76;100.00;98857.30;100634;1341;22750;-33
2022/10/02 01:20:04;;;;;;;1.80;0.80;;;;;;;10.74;100.00;98869.20;100654;1345;23101;-36
2022/10/02 01:22:36;;;;;;;2.40;0.80;;;;;;;10.81;100.00;98868.11;100655;1343;25451;-36
2022/10/02 01:25:04;;;;;;;1.00;0.80;;;;;;;10.78;100.00;98876.00;100837;1342;22462;-33
2022/10/02 01:27:30;;;;;;;1.60;0.80;;;;;;;10.77;100.00;98875.54;100678;1324;22762;-35
2022/10/02 01:29:59;;;;;;;2.20;0.80;;;;;;;10.81;100.00;98884.23;100597;1334;24738;-33
2022/10/02 01:32:24;;;;;;;3.60;1.00;;;;;;;10.83;100.00;98883.80;100645;1341;23238;-33
2022/10/02 01:34:51;;;;;;;1.30;0.50;;;;;;;10.78;100.00;98887.83;100607;1344;23251;-36
2022/10/02 01:37:18;;;;;;;0.50;0.30;;;;;;;10.73;100.00;98889.61;100582;1342;23051;-34
2022/10/02 01:39:43;;;;;;;1.00;0.60;;;;;;;10.74;100.00;98891.92;100692;1330;23115;-38
2022/10/02 01:42:10;;;;;;;1.50;1.10;;;;;;;10.82;100.00;98897.69;100673;1334;23196;-36
2022/10/02 01:44:35;;;;;;;1.40;0.50;;;;;;;10.81;100.00;98899.42;100649;1340;24373;-34
2022/10/02 01:47:03;;;;;;;0.80;0.40;;;;;;;10.78;100.00;98902.79;100563;1341;24372;-36
2022/10/02 01:49:36;;;;;;;4.10;1.30;;;;;;;10.79;100.00;98904.02;100600;1341;23067;-34
2022/10/02 01:52:07;;;;;;;1.70;0.50;;;;;;;10.76;100.00;98908.73;100597;1341;22565;-34
2022/10/02 01:54:51;;;;;;;1.80;0.60;;;;;;;10.72;100.00;98916.81;100654;1342;22955;-33
2022/10/02 01:57:36;;;;;;;;;;;;;;;10.59;100.00;98920.30;100591;1343;24368;-34
2022/10/02 02:00:08;;;;;;;2.00;0.50;;;;;;;10.58;100.00;98926.23;100594;1342;22511;-33
2022/10/02 02:02:41;;;;;;;3.80;1.00;;;;;;;10.59;100.00;98927.36;100652;1340;25364;-34
2022/10/02 02:05:10;;;;;;;0.40;0.20;;;;;;;10.71;100.00;98929.04;100568;1345;22535;-37
2022/10/02 02:07:42;;;;;;;1.30;0.70;;;;;;;10.66;100.00;98926.11;100604;1341;22879;-34
2022/10/02 02:10:15;;;;;;;0.90;0.50;;;;;;;10.69;100.00;98929.20;100633;1342;22599;-34
2022/10/02 02:12:42;;;;;;;1.10;0.70;;;;;;;10.62;100.00;98936.85;100649;1341;22516;-33
2022/10/02 02:15:10;;;;;;;0.80;0.40;;;;;;;10.65;100.00;98937.10;100654;1326;24497;-36
2022/10/02 02:17:41;;;;;;;6.00;0.80;;;;;;;10.64;100.00;98944.82;100629;1337;23018;-33
2022/10/02 02:20:09;;;;;;;1.40;0.60;;;;;;;10.70;100.00;98952.14;100617;1341;23109;-36
2022/10/02 02:22:37;;;;;;;0.90;0.40;;;;;;;10.65;100.00;98953.88;100628;1341;24295;-36
2022/10/02 02:25:08;;;;;;;0.60;0.40;;;;;;;10.65;100.00;98957.48;100595;1341;23094;-34
2022/10/02 02:27:37;;;;;;;4.40;1.10;;;;;;;10.71;100.00;98957.87;100614;1341;24383;-39
2022/10/02 02:30:06;;;;;;;2.00;0.60;;;;;;;10.67;100.00;98959.34;100600;1340;23920;-37
2022/10/02 02:32:35;;;;;;;32.70;0.60;;;;;;;10.72;100.00;98964.45;100554;1341;24347;-37
2022/10/02 02:35:04;;;;;;;0.20;0.20;;;;;;;10.72;100.00;98968.50;100533;1337;22705;-37
2022/10/02 02:37:31;;;;;;;1.00;0.80;;;;;;;10.75;100.00;98972.37;100574;1322;22501;-34
2022/10/02 02:39:59;;;;;;;1.00;0.50;;;;;;;10.75;100.00;98966.30;100701;1325;22516;-39
2022/10/02 02:42:29;;;;;;;1.10;0.50;;;;;;;10.77;100.00;98972.00;100661;1338;22805;-34
2022/10/02 02:45:00;;;;;;;2.40;1.20;;;;;;;10.77;100.00;98975.47;100576;1340;23056;-32
2022/10/02 02:47:28;;;;;;;0.80;0.70;;;;;;;10.80;100.00;98973.85;100606;1336;23241;-37
2022/10/02 02:49:57;;;;;;;1.90;0.50;;;;;;;10.79;100.00;98973.33;100563;1333;22500;-37
2022/10/02 02:52:27;;;;;;;1.10;0.80;;;;;;;10.83;100.00;98978.20;100591;1341;22926;-34
2022/10/02 02:55:00;;;;;;;1.00;0.40;;;;;;;10.77;100.00;98977.02;100602;1336;22717;-36
2022/10/02 02:57:29;;;;;;;1.70;0.80;;;;;;;10.85;100.00;98982.86;100636;1341;24419;-33
2022/10/02 02:59:54;;;;;;;4.50;0.80;;;;;;;10.74;100.00;98984.66;100545;1340;24488;-36
2022/10/02 03:02:20;;;;;;;2.00;0.70;;;;;;;10.81;100.00;98988.08;100522;1341;23068;-36
2022/10/02 03:04:46;;;;;;;1.10;0.60;;;;;;;10.86;100.00;98992.05;100556;1334;22765;-33
2022/10/02 03:07:13;;;;;;;1.20;0.60;;;;;;;10.81;100.00;98992.55;100205;1340;479714;-35
2022/10/02 03:09:39;;;;;;;1.90;0.90;;;;;;;10.82;100.00;99001.92;100569;1341;22749;-35
2022/10/02 03:12:13;;;;;;;2.30;0.30;;;;;;;10.81;100.00;99000.10;100572;1341;22748;-33
2022/10/02 03:14:45;;;;;;;2.50;0.50;;;;;;;10.80;100.00;99010.94;100624;1332;23232;-36
2022/10/02 03:17:14;;;;;;;0.80;0.50;;;;;;;10.82;100.00;99002.46;100660;1334;22896;-38
2022/10/02 03:20:03;;;;;;;0.40;0.30;;;;;;;10.83;100.00;99013.11;100676;1333;22517;-33
2022/10/02 03:22:45;;;;;;;1.00;0.50;;;;;;;10.85;100.00;99014.07;100583;1333;23117;-34
2022/10/02 03:25:12;;;;;;;1.20;0.50;;;;;;;10.81;100.00;99013.83;100552;1333;22763;-34
2022/10/02 03:27:43;;;;;;;1.10;0.70;;;;;;;10.87;100.00;99014.89;100633;1341;22733;-36
2022/10/02 03:30:09;;;;;;;3.90;1.00;;;;;;;10.78;100.00;99015.77;100550;1332;24440;-34
2022/10/02 03:32:35;;;;;;;4.60;0.60;;;;;;;10.79;100.00;99015.73;100583;1336;24485;-37
2022/10/02 03:35:02;;;;;;;1.00;0.40;;;;;;;10.77;100.00;99018.70;100655;1332;23106;-34
2022/10/02 03:37:27;;;;;;;2.40;0.50;;;;;;;10.87;100.00;99014.89;100564;1341;24528;-36
2022/10/02 03:39:57;;;;;;;8.20;1.00;;;;;;;10.74;100.00;99026.92;100510;1341;23538;-33
2022/10/02 03:42:25;;;;;;;2.00;0.30;;;;;;;10.71;100.00;99026.80;100571;1341;22712;-37
2022/10/02 03:44:50;;;;;;;0.30;0.20;;;;;;;10.80;100.00;99027.67;100641;1335;22919;-35
2022/10/02 03:47:16;;;;;;;3.50;0.50;;;;;;;10.76;100.00;99028.26;100566;1341;24498;-36
2022/10/02 03:49:41;;;;;;;0.50;0.40;;;;;;;10.71;100.00;99028.50;100609;1341;22496;-34
2022/10/02 03:52:13;;;;;;;4.50;1.00;;;;;;;10.68;100.00;99032.38;100599;1332;22718;-33
2022/10/02 03:54:38;;;;;;;10.30;0.70;;;;;;;10.78;100.00;99031.59;100570;1341;25315;-36
2022/10/02 03:57:06;;;;;;;3.80;0.30;;;;;;;10.75;100.00;99038.70;100581;1336;22755;-34
2022/10/02 03:59:36;;;;;;;2.30;0.50;;;;;;;10.72;100.00;99040.32;100639;1341;22616;-36
2022/10/02 04:02:03;;;;;;;2.90;0.50;;;;;;;10.71;100.00;99037.76;100612;1341;25386;-36
2022/10/02 04:04:34;;;;;;;1.80;0.50;;;;;;;10.68;100.00;99042.26;100542;1341;23209;-37
2022/10/02 04:07:03;;;;;;;1.60;1.00;;;;;;;10.70;100.00;99046.55;100522;1340;24372;-34
2022/10/02 04:09:34;;;;;;;7.80;1.60;;;;;;;10.68;100.00;99047.96;100750;1326;25255;-36
2022/10/02 04:12:05;;;;;;;6.40;1.70;;;;;;;10.72;100.00;99049.94;100618;1333;22890;-35
2022/10/02 04:14:40;;;;;;;1.90;0.50;;;;;;;10.80;100.00;99055.52;100598;1341;24476;-33
2022/10/02 04:17:09;;;;;;;2.70;1.00;;;;;;;10.80;100.00;99056.60;100617;1339;23242;-33
2022/10/02 04:19:36;;;;;;;0.50;0.40;;;;;;;10.75;100.00;99064.08;100593;1333;22905;-33
2022/10/02 04:22:06;;;;;;;5.60;0.60;;;;;;;10.70;100.00;99063.09;100540;1341;23093;-32
2022/10/02 04:24:37;;;;;;;3.80;0.80;;;;;;;10.60;100.00;99065.60;100583;1326;22523;-36
2022/10/02 04:27:07;;;;;;;0.80;0.80;;;;;;;10.59;100.00;99072.11;100574;1333;24483;-33
2022/10/02 04:29:37;;;;;;;2.70;0.80;;;;;;;10.61;100.00;99085.14;100588;1341;23138;-33
2022/10/02 04:32:11;;;;;;;0.80;0.30;;;;;;;10.65;100.00;99083.98;100664;1341;24930;-34
2022/10/02 04:34:36;;;;;;;7.20;1.10;;;;;;;10.55;100.00;99088.60;100602;1339;25236;-32
2022/10/02 04:37:09;;;;;;;2.50;0.50;;;;;;;10.52;100.00;99094.21;100606;1341;23224;-34
2022/10/02 04:39:39;;;;;;;15.70;1.40;;;;;;;10.48;100.00;99098.33;100598;1341;22630;-34
2022/10/02 04:42:14;;;;;;;3.50;0.60;;;;;;;10.49;100.00;99098.87;100651;1341;22761;-32
2022/10/02 04:44:48;;;;;;;1.10;0.30;;;;;;;10.49;100.00;99099.40;100587;1333;23362;-32
2022/10/02 04:47:23;;;;;;;1.40;0.50;;;;;;;10.55;100.00;99101.90;100611;1341;24406;-35
2022/10/02 04:49:53;;;;;;;1.00;0.60;;;;;;;10.50;100.00;99100.58;100572;1341;24354;-32
2022/10/02 04:52:23;;;;;;;0.60;0.60;;;;;;;10.53;100.00;99103.55;100540;1339;22877;-33
2022/10/02 04:55:01;;;;;;;5.50;0.60;;;;;;;10.45;100.00;99112.78;100646;1341;24834;-35
2022/10/02 04:57:34;;;;;;;3.90;0.60;;;;;;;10.53;100.00;99111.64;100617;1333;24386;-36
2022/10/02 05:00:07;;;;;;;0.50;0.30;;;;;;;10.52;100.00;99110.69;100634;1338;22528;-33
2022/10/02 05:02:56;;;;;;;3.40;0.80;;;;;;;10.44;100.00;99115.14;100613;1333;24350;-36
2022/10/02 05:05:29;;;;;;;1.40;0.60;;;;;;;10.55;100.00;99117.59;100600;1341;22889;-36
2022/10/02 05:07:56;;;;;;;2.40;0.60;;;;;;;10.65;100.00;99117.20;100593;1341;22512;-36
2022/10/02 05:10:30;;;;;;;4.00;0.70;;;;;;;10.58;100.00;99115.83;100652;1333;23105;-36
2022/10/02 05:13:05;;;;;;;2.30;1.20;;;;;;;10.52;100.00;99113.84;100609;1336;22543;-36
2022/10/02 05:15:34;;;;;;;6.80;1.80;;;;;;;10.67;100.00;99116.70;100661;1341;25357;-33
2022/10/02 05:18:08;;;;;;;4.80;0.50;;;;;;;10.64;100.00;99107.86;100599;1341;24450;-33
2022/10/02 05:20:37;;;;;;;;;;;;;;;10.56;100.00;99115.13;100677;1341;22749;-36
2022/10/02 05:23:09;;;;;;;1.40;0.60;;;;;;;10.54;100.00;99120.13;100609;1341;22759;-32
2022/10/02 05:25:47;;;;;;;8.60;0.80;;;;;;;10.51;100.00;99123.63;100649;1340;22753;-35
2022/10/02 05:28:16;;;;;;;4.50;0.80;;;;;;;10.57;100.00;99126.90;100584;1339;24372;-35
2022/10/02 05:30:47;;;;;;;4.30;1.00;;;;;;;10.46;100.00;99121.62;100638;1341;22885;-32
2022/10/02 05:33:22;;;;;;;13.50;0.90;;;;;;;10.54;100.00;99124.91;100654;1341;24542;-32
2022/10/02 05:35:52;;;;;;;12.50;1.20;;;;;;;10.55;100.00;99124.41;100533;1341;24399;-36
2022/10/02 05:38:24;;;;;;;1.60;0.70;;;;;;;10.61;100.00;99131.61;100577;1339;22516;-36
2022/10/02 05:40:59;;;;;;;0.70;0.40;;;;;;;10.62;100.00;99137.61;100645;1341;22501;-36
2022/10/02 05:43:34;;;;;;;1.70;0.40;;;;;;;10.56;100.00;99140.90;100571;1341;22733;-33
2022/10/02 05:46:04;;;;;;;2.20;0.50;;;;;;;10.57;100.00;99142.23;100663;1342;22500;-36
2022/10/02 05:48:36;;;;;;;0.50;0.30;;;;;;;10.61;100.00;99142.20;100644;1333;23375;-34
2022/10/02 05:51:06;;;;;;;1.60;0.30;;;;;;;10.58;100.00;99143.18;100678;1326;22519;-37
2022/10/02 05:53:34;;;;;;;7.60;0.60;;;;;;;10.66;100.00;99147.87;100617;1341;25466;-37
2022/10/02 05:56:05;;;;;;;4.70;1.00;;;;;;;10.60;100.00;99145.58;100632;1341;24486;-34
2022/10/02 05:58:35;;;;;;;2.20;0.40;;;;;;;10.72;100.00;99145.58;100506;1341;23245;-33
2022/10/02 06:01:05;;;;;;;3.80;1.20;;;;;;;10.64;100.00;99152.08;100649;1332;22758;-37
2022/10/02 06:03:35;;;;;;;4.90;0.80;;;;;;;10.70;100.00;99146.72;100632;1333;22500;-34
2022/10/02 06:06:04;;;;;;;6.40;1.30;;;;;;;10.71;100.00;99148.49;100610;1333;25392;-37
2022/10/02 06:08:34;;;;;;;5.60;0.80;;;;;;;10.80;100.00;99146.44;100652;1341;22741;-37
2022/10/02 06:11:05;;;;;;;2.60;1.10;;;;;;;10.90;100.00;99149.11;100630;1339;22543;-36
2022/10/02 06:13:37;;;;;;;3.00;0.90;;;;;;;10.83;100.00;99146.86;100563;1335;24306;-34
2022/10/02 06:16:09;;;;;;;1.80;0.20;;;;;;;10.74;100.00;99150.95;100571;1340;22875;-36
2022/10/02 06:18:35;;;;;;;1.50;0.90;;;;;;;10.83;100.00;99148.70;100569;1341;22888;-36
2022/10/02 06:21:02;;;;;;;5.30;1.70;;;;;;;10.90;100.00;99152.70;100584;1341;22748;-34
2022/10/02 06:23:31;;;;;;;7.80;4.70;;;;;;;10.84;100.00;99149.89;100601;1341;22864;-36
2022/10/02 06:26:00;;;;;;;5.40;1.90;;;;;;;10.93;100.00;99147.66;100656;1341;22498;-34
2022/10/02 06:28:47;;;;;;;9.90;1.20;;;;;;;11.00;100.00;99146.47;100562;1334;23278;-33
2022/10/02 06:31:17;;;;;;;2.80;1.40;;;;;;;11.09;100.00;99154.87;100537;1339;22991;-37
2022/10/02 06:33:43;;;;;;;3.30;1.80;;;;;;;11.13;100.00;99150.98;100660;1334;22754;-34
2022/10/02 06:36:16;;;;;;;7.90;0.70;;;;;;;11.16;100.00;99159.33;100682;1342;22751;-33
2022/10/02 06:38:50;;;;;;;1.70;0.70;;;;;;;11.14;100.00;99158.44;100614;1341;22855;-38
2022/10/02 06:41:23;;;;;;;11.10;1.50;;;;;;;11.25;100.00;99158.02;100607;1333;23321;-33
2022/10/02 06:43:57;;;;;;;1.90;1.00;;;;;;;11.20;100.00;99163.89;100574;1341;23528;-36
2022/10/02 06:46:28;;;;;;;6.00;1.20;;;;;;;11.14;100.00;99168.73;100578;1341;22552;-33
2022/10/02 06:48:59;;;;;;;3.20;0.80;;;;;;;11.21;100.00;99169.98;100624;1342;24375;-33
2022/10/02 06:51:30;;;;;;;1.10;0.60;;;;;;;11.19;100.00;99164.92;100551;1341;24501;-34
2022/10/02 06:54:02;;;;;;;3.70;1.00;;;;;;;11.28;100.00;99171.46;100581;1327;24411;-33
2022/10/02 06:56:35;;;;;;;4.90;0.90;;;;;;;11.21;100.00;99167.73;100518;1342;22493;-36
2022/10/02 06:59:08;;;;;;;2.70;0.50;;;;;;;11.25;100.00;99170.27;100615;1334;22466;-34
2022/10/02 07:01:43;;;;;;;0.40;0.40;;;;;;;11.26;100.00;99170.84;100547;1341;22561;-34
2022/10/02 07:04:16;;;;;;;3.80;0.90;;;;;;;11.40;100.00;99168.48;100508;1341;22494;-36
2022/10/02 07:06:49;;;;;;;0.60;0.40;;;;;;;11.55;100.00;99169.59;100627;1341;25393;-36
2022/10/02 07:09:21;;;;;;;1.20;0.30;;;;;;;11.50;100.00;99175.77;100596;1340;24382;-34
2022/10/02 07:11:55;;;;;;;1.20;0.60;;;;;;;11.55;100.00;99177.88;100749;1319;25556;-33
2022/10/02 07:14:27;;;;;;;9.00;1.70;;;;;;;11.63;100.00;99176.50;100694;1341;25411;-34
2022/10/02 07:16:57;;;;;;;19.00;1.90;;;;;;;11.64;100.00;99184.48;100703;1341;25323;-34
2022/10/02 07:19:26;;;;;;;4.60;1.20;;;;;;;11.69;100.00;99183.69;100761;1339;22898;-34
2022/10/02 07:22:19;;;;;;;6.90;1.50;;;;;;;11.82;100.00;99182.64;100667;1341;23228;-34
2022/10/02 07:24:57;;;;;;;2.80;1.00;;;;;;;11.84;100.00;99185.73;100609;1336;22714;-37
2022/10/02 07:27:30;;;;;;;7.90;1.50;;;;;;;11.99;100.00;99185.98;100694;1341;23117;-38
2022/10/02 07:30:02;;;;;;;4.70;0.70;;;;;;;12.12;100.00;99179.73;100690;1339;24421;-38
2022/10/02 07:32:35;;;;;;;5.80;1.10;;;;;;;11.95;100.00;99182.73;100650;1341;24356;-35
2022/10/02 07:35:09;;;;;;;5.60;1.00;;;;;;;12.01;100.00;99176.24;100806;1339;22873;-37
2022/10/02 07:37:44;;;;;;;1.80;0.90;;;;;;;12.21;99.37;99178.67;100680;1333;24330;-35
2022/10/02 07:40:17;;;;;;;5.30;1.10;;;;;;;12.27;99.75;99180.73;100704;1332;25320;-34
2022/10/02 07:42:50;;;;;;;2.10;0.60;;;;;;;12.47;98.42;99182.71;100730;1341;22779;-37
2022/10/02 07:45:21;;;;;;;1.80;1.00;;;;;;;12.53;97.43;99184.64;100687;1341;26597;-37
2022/10/02 07:47:53;;;;;;;3.00;0.60;;;;;;;12.54;97.11;99188.94;100685;1339;23242;-34
2022/10/02 07:50:26;;;;;;;2.00;0.90;;;;;;;12.44;96.47;99191.42;100786;1333;24265;-34
2022/10/02 07:53:01;;;;;;;4.50;1.60;;;;;;;12.37;97.65;99191.41;100683;1339;22628;-37
2022/10/02 07:55:27;;;;;;;3.60;0.30;;;;;;;12.54;95.97;99186.61;100688;1338;24438;-33
2022/10/02 07:57:57;;;;;;;4.90;1.40;;;;;;;12.56;95.59;99187.81;100678;1333;24258;-34
2022/10/02 08:00:24;;;;;;;4.40;0.60;;;;;;;12.51;96.64;99192.98;100696;1327;23233;-36
2022/10/02 08:02:56;;;;;;;1.50;0.80;;;;;;;12.38;96.81;99193.48;100709;1341;23227;-34
2022/10/02 08:05:24;;;;;;;10.20;1.10;;;;;;;12.47;96.29;99190.99;100718;1332;24386;-36
2022/10/02 08:07:52;;;;;;;10.60;1.60;;;;;;;12.44;97.40;99189.52;100717;1335;24384;-36
2022/10/02 08:10:21;;;;;;;3.40;0.90;;;;;;;12.54;98.34;99187.14;100795;1334;23021;-34
2022/10/02 08:12:52;;;;;;;1.80;0.70;;;;;;;12.81;95.73;99182.54;100688;1334;23339;-36
2022/10/02 08:15:18;;;;;;;13.10;1.00;;;;;;;12.92;94.51;99181.64;100708;1340;24374;-40
2022/10/02 08:17:48;;;;;;;2.50;0.60;;;;;;;13.21;93.33;99192.61;100717;1341;22888;-34
2022/10/02 08:20:21;;;;;;;4.40;0.80;;;;;;;13.18;92.47;99181.30;100619;1342;22556;-35
2022/10/02 08:22:50;;;;;;;2.90;0.60;;;;;;;13.06;91.76;99181.13;100710;1340;22620;-38
2022/10/02 08:25:20;;;;;;;1.10;0.30;;;;;;;12.92;92.51;99176.25;100664;1337;22896;-35
2022/10/02 08:27:52;;;;;;;4.00;0.70;;;;;;;12.95;91.66;99175.77;100708;1333;24339;-36
2022/10/02 08:30:17;;;;;;;2.70;0.60;;;;;;;12.74;93.85;99180.09;100687;1334;23055;-37
2022/10/02 08:32:43;;;;;;;17.40;2.30;;;;;;;12.52;96.81;99180.50;100655;1341;23398;-34
2022/10/02 08:35:11;;;;;;;1.40;0.30;;;;;;;12.39;97.33;99173.46;100669;1341;23103;-35
2022/10/02 08:37:54;;;;;;;1.40;0.80;;;;;;;12.28;96.85;99176.40;100581;1342;22874;-32
2022/10/02 08:40:21;;;;;;;5.40;0.80;;;;;;;11.90;99.83;99179.20;100747;1332;22570;-33
2022/10/02 08:42:50;;;;;;;4.60;1.80;;;;;;;11.61;100.00;99185.09;100673;1327;22735;-35
2022/10/02 08:45:25;;;;;;;4.80;0.90;;;;;;;11.58;100.00;99186.06;100706;1334;23417;-36
2022/10/02 08:47:58;;;;;;;1.00;0.20;;;;;;;11.51;100.00;99186.39;100748;1341;24416;-33
2022/10/02 08:50:30;;;;;;;7.90;1.40;;;;;;;11.48;100.00;99183.25;100704;1341;26716;-36
2022/10/02 08:53:02;;;;;;;6.30;0.80;;;;;;;11.56;100.00;99180.98;100693;1333;22580;-34
2022/10/02 08:55:42;;;;;;;5.90;1.50;;;;;;;11.57;100.00;99181.63;100748;1341;24112;-33
2022/10/02 08:58:32;;;;;;;4.70;0.70;;;;;;;11.63;100.00;99180.17;100695;1333;22932;-37
2022/10/02 09:01:02;;;;;;;1.20;0.80;;;;;;;11.63;100.00;99183.95;100711;1341;24234;-33
2022/10/02 09:03:43;;;;;;;9.90;0.90;;;;;;;11.75;100.00;99189.64;100680;1333;24402;-36
2022/10/02 09:06:13;;;;;;;5.90;1.10;;;;;;;11.74;100.00;99187.41;100790;1339;24556;-34
2022/10/02 09:08:50;;;;;;;8.20;1.60;;;;;;;11.75;100.00;99185.14;100705;1332;22763;-37
2022/10/02 09:11:25;;;;;;;6.50;1.50;;;;;;;11.77;100.00;99180.62;100652;1339;23215;-37
2022/10/02 09:14:01;;;;;;;6.80;1.00;;;;;;;11.91;100.00;99177.02;100688;1341;25402;-37
2022/10/02 09:16:31;;;;;;;2.80;0.60;;;;;;;12.07;100.00;99171.14;100695;1341;24363;-35
2022/10/02 09:19:00;;;;;;;16.30;0.70;;;;;;;12.09;100.00;99175.27;100729;1339;24421;-37
2022/10/02 09:21:33;;;;;;;14.00;0.90;;;;;;;12.16;100.00;99170.27;100735;1341;22509;-36
2022/10/02 09:24:05;;;;;;;0.00;0.00;;;;;;;12.25;100.00;99171.66;100703;1339;22752;-34
2022/10/02 09:26:38;;;;;;;3.60;1.10;;;;;;;12.44;100.00;99171.12;100736;1340;25285;-34
2022/10/02 09:29:11;;;;;;;5.80;1.30;;;;;;;12.62;100.00;99173.10;100557;1340;22751;-34
2022/10/02 09:31:57;;;;;;;2.40;0.90;;;;;;;12.93;100.00;99169.77;100709;1324;25242;-37
2022/10/02 09:34:32;;;;;;;2.10;0.80;;;;;;;13.25;97.29;99166.20;100701;1339;22748;-36
2022/10/02 09:37:08;;;;;;;0.70;0.20;;;;;;;13.55;95.56;99159.23;100669;1341;25347;-36
2022/10/02 09:39:50;;;;;;;2.80;0.30;;;;;;;13.78;93.57;99152.20;100758;1341;22500;-37
2022/10/02 09:42:19;;;;;;;5.20;0.80;;;;;;;13.92;91.32;99145.05;100681;1341;24058;-36
2022/10/02 09:44:57;;;;;;;3.30;1.00;;;;;;;14.24;91.16;99146.41;100711;1341;23924;-36
2022/10/02 09:47:29;;;;;;;2.60;0.50;;;;;;;14.64;88.66;99142.85;100750;1335;22511;-37
2022/10/02 09:50:06;;;;;;;;;;;;;;;14.75;86.44;99140.87;100693;1341;22509;-36
2022/10/02 09:52:56;;;;;;;11.70;5.40;;;;;;;14.80;86.45;99142.84;100700;1323;24297;-37
2022/10/02 09:55:41;;;;;;;3.20;0.90;;;;;;;14.68;88.30;99139.68;100683;1337;23048;-37
2022/10/02 09:58:15;;;;;;;2.10;0.70;;;;;;;14.78;85.69;99146.09;100696;1334;24553;-36
2022/10/02 10:00:51;;;;;;;2.30;1.30;;;;;;;14.79;84.86;99144.88;100674;1340;24294;-37
2022/10/02 10:03:24;;;;;;;12.10;1.00;;;;;;;14.50;85.85;99138.58;100661;1341;23359;-37
2022/10/02 10:05:57;;;;;;;5.70;0.90;;;;;;;14.44;86.52;99136.43;100676;1338;22523;-34
2022/10/02 10:08:27;;;;;;;3.10;0.90;;;;;;;14.45;85.74;99135.19;100699;1328;22515;-37
2022/10/02 10:10:54;;;;;;;11.80;1.20;;;;;;;14.52;86.55;99131.40;100733;1317;22828;-34
2022/10/02 10:13:31;;;;;;;11.40;1.00;;;;;;;14.52;86.35;99131.52;100684;1326;24372;-36
2022/10/02 10:16:01;;;;;;;0.00;0.00;;;;;;;14.63;83.65;99127.80;100689;1332;24032;-38
2022/10/02 10:18:38;;;;;;;13.50;0.80;;;;;;;14.62;84.92;99135.02;100683;1341;25359;-34
2022/10/02 10:21:10;;;;;;;2.90;0.50;;;;;;;14.82;81.27;99141.17;100679;1334;24372;-39
2022/10/02 10:24:00;;;;;;;9.60;0.70;;;;;;;14.76;79.25;99133.77;100668;1341;23116;-38
2022/10/02 10:26:49;;;;;;;16.30;2.20;;;;;;;14.63;80.62;99131.92;100590;1331;22509;-33
2022/10/02 10:29:30;;;;;;;1.00;0.40;;;;;;;14.54;81.05;99130.09;100682;1333;22764;-38
2022/10/02 10:32:06;;;;;;;4.40;0.60;;;;;;;14.46;80.06;99130.23;100636;1334;22751;-39
2022/10/02 10:34:44;;;;;;;1.60;0.70;;;;;;;14.55;81.00;99138.23;100691;1341;24945;-34
2022/10/02 10:39:53;;;;;;;1.70;0.50;;;;;;;14.73;80.17;99132.45;100691;1341;23112;-34
2022/10/02 10:42:45;;;;;;;2.40;0.70;;;;;;;14.70;80.89;99129.86;100735;1341;24311;-37
2022/10/02 10:45:35;;;;;;;6.90;0.60;;;;;;;14.94;78.09;99129.64;100660;1341;24481;-37
2022/10/02 10:48:18;;;;;;;4.80;1.50;;;;;;;14.97;78.13;99132.02;100669;1333;24289;-33
2022/10/02 10:50:47;;;;;;;1.80;0.30;;;;;;;15.01;77.81;99132.74;100652;1339;23113;-37
2022/10/02 10:53:20;;;;;;;2.00;0.40;;;;;;;15.05;79.88;99120.40;100604;1341;22747;-34
2022/10/02 10:55:58;;;;;;;3.50;0.80;;;;;;;15.28;78.07;99111.38;100694;1341;25366;-37
2022/10/02 10:58:31;;;;;;;0.30;0.20;;;;;;;15.25;76.74;99111.26;100692;1337;25179;-37
2022/10/02 11:01:06;;;;;;;6.00;0.70;;;;;;;15.29;76.56;99107.77;100673;1341;22632;-37
2022/10/02 11:03:41;;;;;;;0.80;0.30;;;;;;;15.31;76.94;99113.20;100696;1337;25333;-35
2022/10/02 11:06:11;;;;;;;4.30;0.80;;;;;;;15.65;75.82;99103.75;100366;1340;403495;-37
2022/10/02 11:08:57;;;;;;;2.30;0.50;;;;;;;16.03;75.42;99094.21;100695;1340;22715;-35
2022/10/02 11:11:31;;;;;;;2.20;0.40;;;;;;;16.50;73.34;99093.47;100736;1341;22521;-35
2022/10/02 11:14:05;;;;;;;5.20;1.00;;;;;;;16.92;69.42;99083.98;100710;1338;23147;-35
2022/10/02 11:16:37;;;;;;;3.60;0.80;;;;;;;17.00;67.04;99078.90;100692;1341;22626;-38
2022/10/02 11:19:06;;;;;;;2.50;0.70;;;;;;;16.91;65.08;99068.52;100651;1341;25698;-37
2022/10/02 11:21:40;;;;;;;0.70;0.30;;;;;;;16.77;65.67;99079.92;100704;1341;24573;-38
2022/10/02 11:24:09;;;;;;;;;;;;;;;16.96;64.53;99070.28;100733;1340;25214;-35
2022/10/02 11:26:38;;;;;;;3.40;0.60;;;;;;;17.06;61.76;99075.92;100684;1333;22764;-34
2022/10/02 11:29:11;;;;;;;5.30;0.90;;;;;;;16.58;63.85;99073.23;100638;1340;22873;-38
2022/10/02 11:31:40;;;;;;;0.70;0.20;;;;;;;16.37;64.89;99070.11;100690;1340;25591;-35
2022/10/02 11:34:12;;;;;;;7.00;0.60;;;;;;;16.25;64.21;99075.21;100646;1341;23113;-33
2022/10/02 11:37:04;;;;;;;0.20;0.20;;;;;;;16.03;65.89;99074.17;100702;1340;26719;-36
2022/10/02 11:39:36;;;;;;;1.40;0.40;;;;;;;15.67;67.72;99069.66;100676;1333;24303;-35
2022/10/02 11:42:08;;;;;;;2.60;0.80;;;;;;;15.50;69.07;99072.64;100724;1327;22504;-36
2022/10/02 11:44:43;;;;;;;3.20;0.70;;;;;;;15.42;69.96;99074.91;100737;1334;23018;-36